sensor_id;sensor_type;location;lat;lon;timestamp;P1;durP1;ratioP1;P2;durP2;ratioP2
15516;SDS011;7860;52.030;5.572;2022-12-01T00:03:23;44.37;;;24.74;;
15516;SDS011;7860;52.030;5.572;2022-12-01T00:03:23;43.39;;;24.77;;
15516;SDS011;7860;52.030;5.572;2022-12-01T00:03:23;44.01;;;24.06;;
15516;SDS011;7860;52.030;5.572;2022-12-01T00:03:23;43.51;;;24.59;;
15516;SDS011;7860;52.030;5.572;2022-12-01T00:04:18;43.29;;;24.25;;
15516;SDS011;7860;52.030;5.572;2022-12-01T00:05:19;40.64;;;23.33;;
15516;SDS011;7860;52.030;5.572;2022-12-01T00:06:20;43.64;;;23.97;;
15516;SDS011;7860;52.030;5.572;2022-12-01T00:07:20;41.41;;;23.35;;
15516;SDS011;7860;52.030;5.572;2022-12-01T00:08:21;41.93;;;23.14;;
15516;SDS011;7860;52.030;5.572;2022-12-01T00:09:22;42.32;;;22.96;;
15516;SDS011;7860;52.030;5.572;2022-12-01T00:10:22;38.51;;;22.37;;
15516;SDS011;7860;52.030;5.572;2022-12-01T00:11:23;39.73;;;22.61;;
15516;SDS011;7860;52.030;5.572;2022-12-01T00:12:23;38.61;;;21.79;;
15516;SDS011;7860;52.030;5.572;2022-12-01T00:13:23;39.28;;;22.26;;
15516;SDS011;7860;52.030;5.572;2022-12-01T00:14:24;39.05;;;22.67;;
15516;SDS011;7860;52.030;5.572;2022-12-01T00:15:25;39.89;;;22.02;;
15516;SDS011;7860;52.030;5.572;2022-12-01T00:16:24;37.89;;;22.24;;
15516;SDS011;7860;52.030;5.572;2022-12-01T00:17:26;39.24;;;22.03;;
15516;SDS011;7860;52.030;5.572;2022-12-01T00:18:25;39.07;;;21.82;;
15516;SDS011;7860;52.030;5.572;2022-12-01T00:19:26;38.77;;;21.92;;
15516;SDS011;7860;52.030;5.572;2022-12-01T00:20:26;39.81;;;22.89;;
15516;SDS011;7860;52.030;5.572;2022-12-01T00:21:26;38.51;;;22.16;;
15516;SDS011;7860;52.030;5.572;2022-12-01T00:22:27;41.80;;;23.46;;
15516;SDS011;7860;52.030;5.572;2022-12-01T00:23:27;39.95;;;22.93;;
15516;SDS011;7860;52.030;5.572;2022-12-01T00:24:28;38.60;;;22.80;;
15516;SDS011;7860;52.030;5.572;2022-12-01T00:25:28;39.61;;;23.40;;
15516;SDS011;7860;52.030;5.572;2022-12-01T00:26:29;40.97;;;22.82;;
15516;SDS011;7860;52.030;5.572;2022-12-01T00:27:29;39.66;;;23.90;;
15516;SDS011;7860;52.030;5.572;2022-12-01T00:28:30;41.98;;;23.67;;
15516;SDS011;7860;52.030;5.572;2022-12-01T00:29:30;40.96;;;23.43;;
15516;SDS011;7860;52.030;5.572;2022-12-01T00:30:31;41.36;;;23.89;;
15516;SDS011;7860;52.030;5.572;2022-12-01T00:31:32;41.13;;;23.52;;
15516;SDS011;7860;52.030;5.572;2022-12-01T00:32:32;42.34;;;24.07;;
15516;SDS011;7860;52.030;5.572;2022-12-01T00:33:33;43.99;;;24.79;;
15516;SDS011;7860;52.030;5.572;2022-12-01T00:34:34;42.22;;;23.43;;
15516;SDS011;7860;52.030;5.572;2022-12-01T00:35:34;40.60;;;23.40;;
15516;SDS011;7860;52.030;5.572;2022-12-01T00:36:35;39.98;;;23.65;;
15516;SDS011;7860;52.030;5.572;2022-12-01T00:37:35;40.69;;;23.55;;
15516;SDS011;7860;52.030;5.572;2022-12-01T00:38:36;40.11;;;24.12;;
15516;SDS011;7860;52.030;5.572;2022-12-01T00:39:36;40.35;;;23.43;;
15516;SDS011;7860;52.030;5.572;2022-12-01T00:40:37;42.82;;;23.78;;
15516;SDS011;7860;52.030;5.572;2022-12-01T00:41:37;42.92;;;23.68;;
15516;SDS011;7860;52.030;5.572;2022-12-01T00:42:38;40.94;;;23.03;;
15516;SDS011;7860;52.030;5.572;2022-12-01T00:44:03;41.64;;;23.90;;
15516;SDS011;7860;52.030;5.572;2022-12-01T00:45:04;39.64;;;24.49;;
15516;SDS011;7860;52.030;5.572;2022-12-01T00:46:04;41.31;;;24.98;;
15516;SDS011;7860;52.030;5.572;2022-12-01T00:47:04;41.08;;;24.65;;
15516;SDS011;7860;52.030;5.572;2022-12-01T00:48:05;42.92;;;24.66;;
15516;SDS011;7860;52.030;5.572;2022-12-01T00:49:08;41.59;;;24.51;;
15516;SDS011;7860;52.030;5.572;2022-12-01T00:50:06;39.84;;;24.73;;
15516;SDS011;7860;52.030;5.572;2022-12-01T00:51:06;41.92;;;25.20;;
15516;SDS011;7860;52.030;5.572;2022-12-01T00:52:07;42.76;;;25.26;;
15516;SDS011;7860;52.030;5.572;2022-12-01T00:53:08;42.29;;;25.46;;
15516;SDS011;7860;52.030;5.572;2022-12-01T00:54:09;42.24;;;25.23;;
15516;SDS011;7860;52.030;5.572;2022-12-01T00:55:09;41.25;;;24.70;;
15516;SDS011;7860;52.030;5.572;2022-12-01T00:56:11;43.40;;;24.81;;
15516;SDS011;7860;52.030;5.572;2022-12-01T00:57:10;42.55;;;25.24;;
15516;SDS011;7860;52.030;5.572;2022-12-01T00:58:10;41.24;;;24.26;;
15516;SDS011;7860;52.030;5.572;2022-12-01T00:59:11;43.72;;;25.65;;
15516;SDS011;7860;52.030;5.572;2022-12-01T01:00:11;42.07;;;24.23;;
15516;SDS011;7860;52.030;5.572;2022-12-01T01:01:12;42.58;;;23.86;;
15516;SDS011;7860;52.030;5.572;2022-12-01T01:02:12;42.92;;;24.43;;
15516;SDS011;7860;52.030;5.572;2022-12-01T01:03:13;42.58;;;24.11;;
15516;SDS011;7860;52.030;5.572;2022-12-01T01:04:13;42.83;;;24.34;;
15516;SDS011;7860;52.030;5.572;2022-12-01T01:05:14;45.16;;;24.91;;
15516;SDS011;7860;52.030;5.572;2022-12-01T01:06:15;38.68;;;23.65;;
15516;SDS011;7860;52.030;5.572;2022-12-01T01:07:15;43.25;;;24.01;;
15516;SDS011;7860;52.030;5.572;2022-12-01T01:08:15;43.38;;;25.99;;
15516;SDS011;7860;52.030;5.572;2022-12-01T01:09:16;43.58;;;24.85;;
15516;SDS011;7860;52.030;5.572;2022-12-01T01:10:17;40.80;;;24.89;;
15516;SDS011;7860;52.030;5.572;2022-12-01T01:11:17;44.45;;;25.42;;
15516;SDS011;7860;52.030;5.572;2022-12-01T01:12:17;42.17;;;24.75;;
15516;SDS011;7860;52.030;5.572;2022-12-01T01:13:17;40.06;;;24.26;;
15516;SDS011;7860;52.030;5.572;2022-12-01T01:14:17;42.67;;;24.47;;
15516;SDS011;7860;52.030;5.572;2022-12-01T01:15:18;43.69;;;25.47;;
15516;SDS011;7860;52.030;5.572;2022-12-01T01:16:19;39.10;;;23.59;;
15516;SDS011;7860;52.030;5.572;2022-12-01T01:17:19;46.21;;;25.82;;
15516;SDS011;7860;52.030;5.572;2022-12-01T01:18:19;45.19;;;25.46;;
15516;SDS011;7860;52.030;5.572;2022-12-01T01:19:19;47.38;;;27.01;;
15516;SDS011;7860;52.030;5.572;2022-12-01T01:20:20;44.78;;;26.91;;
15516;SDS011;7860;52.030;5.572;2022-12-01T01:21:20;46.50;;;27.69;;
15516;SDS011;7860;52.030;5.572;2022-12-01T01:22:20;45.69;;;27.05;;
15516;SDS011;7860;52.030;5.572;2022-12-01T01:23:21;45.26;;;27.00;;
15516;SDS011;7860;52.030;5.572;2022-12-01T01:24:21;47.54;;;27.08;;
15516;SDS011;7860;52.030;5.572;2022-12-01T01:25:22;48.07;;;27.22;;
15516;SDS011;7860;52.030;5.572;2022-12-01T01:26:24;45.81;;;27.05;;
15516;SDS011;7860;52.030;5.572;2022-12-01T01:27:23;48.10;;;27.86;;
15516;SDS011;7860;52.030;5.572;2022-12-01T01:28:24;49.94;;;29.05;;
15516;SDS011;7860;52.030;5.572;2022-12-01T01:29:25;47.81;;;27.13;;
15516;SDS011;7860;52.030;5.572;2022-12-01T01:30:25;48.60;;;27.76;;
15516;SDS011;7860;52.030;5.572;2022-12-01T01:31:26;44.70;;;26.19;;
15516;SDS011;7860;52.030;5.572;2022-12-01T01:32:26;47.56;;;27.05;;
15516;SDS011;7860;52.030;5.572;2022-12-01T01:33:28;45.58;;;25.84;;
15516;SDS011;7860;52.030;5.572;2022-12-01T01:34:27;47.08;;;26.65;;
15516;SDS011;7860;52.030;5.572;2022-12-01T01:35:27;46.83;;;26.66;;
15516;SDS011;7860;52.030;5.572;2022-12-01T01:36:28;48.64;;;26.74;;
15516;SDS011;7860;52.030;5.572;2022-12-01T01:37:28;51.01;;;27.32;;
15516;SDS011;7860;52.030;5.572;2022-12-01T01:38:30;54.19;;;27.94;;
15516;SDS011;7860;52.030;5.572;2022-12-01T01:39:29;48.58;;;26.96;;
15516;SDS011;7860;52.030;5.572;2022-12-01T01:40:30;49.00;;;27.87;;
15516;SDS011;7860;52.030;5.572;2022-12-01T01:41:30;49.89;;;28.96;;
15516;SDS011;7860;52.030;5.572;2022-12-01T01:42:31;48.55;;;27.47;;
15516;SDS011;7860;52.030;5.572;2022-12-01T01:43:40;46.82;;;26.06;;
15516;SDS011;7860;52.030;5.572;2022-12-01T01:44:49;49.94;;;27.52;;
15516;SDS011;7860;52.030;5.572;2022-12-01T01:45:33;49.88;;;28.25;;
15516;SDS011;7860;52.030;5.572;2022-12-01T01:46:33;47.93;;;27.67;;
15516;SDS011;7860;52.030;5.572;2022-12-01T01:47:35;50.76;;;28.42;;
15516;SDS011;7860;52.030;5.572;2022-12-01T01:48:35;48.81;;;27.31;;
15516;SDS011;7860;52.030;5.572;2022-12-01T01:49:35;49.96;;;27.80;;
15516;SDS011;7860;52.030;5.572;2022-12-01T01:50:36;49.51;;;28.19;;
15516;SDS011;7860;52.030;5.572;2022-12-01T01:51:37;47.29;;;27.60;;
15516;SDS011;7860;52.030;5.572;2022-12-01T01:52:37;46.77;;;27.97;;
15516;SDS011;7860;52.030;5.572;2022-12-01T01:53:38;52.14;;;28.11;;
15516;SDS011;7860;52.030;5.572;2022-12-01T01:54:38;48.00;;;27.86;;
15516;SDS011;7860;52.030;5.572;2022-12-01T01:55:39;47.37;;;27.38;;
15516;SDS011;7860;52.030;5.572;2022-12-01T01:56:40;49.66;;;28.10;;
15516;SDS011;7860;52.030;5.572;2022-12-01T01:57:40;48.42;;;27.47;;
15516;SDS011;7860;52.030;5.572;2022-12-01T01:58:41;50.26;;;28.05;;
15516;SDS011;7860;52.030;5.572;2022-12-01T01:59:41;49.39;;;27.60;;
15516;SDS011;7860;52.030;5.572;2022-12-01T02:00:42;51.73;;;28.71;;
15516;SDS011;7860;52.030;5.572;2022-12-01T02:01:41;49.14;;;28.33;;
15516;SDS011;7860;52.030;5.572;2022-12-01T02:02:42;47.83;;;27.86;;
15516;SDS011;7860;52.030;5.572;2022-12-01T02:03:42;50.67;;;28.12;;
15516;SDS011;7860;52.030;5.572;2022-12-01T02:04:44;46.28;;;27.60;;
15516;SDS011;7860;52.030;5.572;2022-12-01T02:05:43;47.56;;;27.11;;
15516;SDS011;7860;52.030;5.572;2022-12-01T02:06:44;49.32;;;27.80;;
15516;SDS011;7860;52.030;5.572;2022-12-01T02:07:44;48.58;;;27.82;;
15516;SDS011;7860;52.030;5.572;2022-12-01T02:08:45;47.64;;;26.61;;
15516;SDS011;7860;52.030;5.572;2022-12-01T02:09:46;50.82;;;27.66;;
15516;SDS011;7860;52.030;5.572;2022-12-01T02:10:51;48.36;;;26.59;;
15516;SDS011;7860;52.030;5.572;2022-12-01T02:11:51;48.97;;;27.26;;
15516;SDS011;7860;52.030;5.572;2022-12-01T02:12:52;51.38;;;28.22;;
15516;SDS011;7860;52.030;5.572;2022-12-01T02:13:49;48.71;;;27.44;;
15516;SDS011;7860;52.030;5.572;2022-12-01T02:14:56;51.84;;;26.59;;
15516;SDS011;7860;52.030;5.572;2022-12-01T02:15:51;49.78;;;27.47;;
15516;SDS011;7860;52.030;5.572;2022-12-01T02:16:50;50.12;;;27.71;;
15516;SDS011;7860;52.030;5.572;2022-12-01T02:17:53;48.85;;;27.68;;
15516;SDS011;7860;52.030;5.572;2022-12-01T02:18:50;47.95;;;27.22;;
15516;SDS011;7860;52.030;5.572;2022-12-01T02:19:55;46.86;;;27.02;;
15516;SDS011;7860;52.030;5.572;2022-12-01T02:20:56;48.44;;;27.63;;
15516;SDS011;7860;52.030;5.572;2022-12-01T02:21:53;48.48;;;27.58;;
15516;SDS011;7860;52.030;5.572;2022-12-01T02:22:58;47.37;;;27.38;;
15516;SDS011;7860;52.030;5.572;2022-12-01T02:24:58;47.68;;;27.21;;
15516;SDS011;7860;52.030;5.572;2022-12-01T02:25:55;50.77;;;26.53;;
15516;SDS011;7860;52.030;5.572;2022-12-01T02:26:56;49.19;;;27.70;;
15516;SDS011;7860;52.030;5.572;2022-12-01T02:28:00;44.44;;;26.13;;
15516;SDS011;7860;52.030;5.572;2022-12-01T02:29:02;49.52;;;27.09;;
15516;SDS011;7860;52.030;5.572;2022-12-01T02:30:05;49.82;;;27.08;;
15516;SDS011;7860;52.030;5.572;2022-12-01T02:30:57;50.78;;;28.36;;
15516;SDS011;7860;52.030;5.572;2022-12-01T02:31:58;50.66;;;27.62;;
15516;SDS011;7860;52.030;5.572;2022-12-01T02:33:00;48.26;;;27.03;;
15516;SDS011;7860;52.030;5.572;2022-12-01T02:34:00;48.26;;;26.65;;
15516;SDS011;7860;52.030;5.572;2022-12-01T02:35:00;52.09;;;28.30;;
15516;SDS011;7860;52.030;5.572;2022-12-01T02:36:00;50.05;;;26.71;;
15516;SDS011;7860;52.030;5.572;2022-12-01T02:37:01;49.21;;;27.55;;
15516;SDS011;7860;52.030;5.572;2022-12-01T02:38:04;48.70;;;25.88;;
15516;SDS011;7860;52.030;5.572;2022-12-01T02:39:01;49.22;;;26.57;;
15516;SDS011;7860;52.030;5.572;2022-12-01T02:40:04;48.01;;;26.33;;
15516;SDS011;7860;52.030;5.572;2022-12-01T02:41:03;50.12;;;27.12;;
15516;SDS011;7860;52.030;5.572;2022-12-01T02:42:02;51.32;;;26.61;;
15516;SDS011;7860;52.030;5.572;2022-12-01T02:43:03;49.27;;;26.15;;
15516;SDS011;7860;52.030;5.572;2022-12-01T02:44:04;49.48;;;26.99;;
15516;SDS011;7860;52.030;5.572;2022-12-01T02:45:04;49.77;;;26.13;;
15516;SDS011;7860;52.030;5.572;2022-12-01T02:46:05;48.24;;;26.22;;
15516;SDS011;7860;52.030;5.572;2022-12-01T02:47:06;47.80;;;26.50;;
15516;SDS011;7860;52.030;5.572;2022-12-01T02:48:05;51.12;;;26.48;;
15516;SDS011;7860;52.030;5.572;2022-12-01T02:49:06;49.90;;;26.24;;
15516;SDS011;7860;52.030;5.572;2022-12-01T02:50:06;49.45;;;25.76;;
15516;SDS011;7860;52.030;5.572;2022-12-01T02:51:06;46.30;;;25.58;;
15516;SDS011;7860;52.030;5.572;2022-12-01T02:52:06;46.73;;;24.86;;
15516;SDS011;7860;52.030;5.572;2022-12-01T02:53:08;48.58;;;25.95;;
15516;SDS011;7860;52.030;5.572;2022-12-01T02:54:07;47.40;;;25.96;;
15516;SDS011;7860;52.030;5.572;2022-12-01T02:55:08;47.16;;;25.46;;
15516;SDS011;7860;52.030;5.572;2022-12-01T02:56:09;49.89;;;26.49;;
15516;SDS011;7860;52.030;5.572;2022-12-01T02:57:10;51.95;;;26.00;;
15516;SDS011;7860;52.030;5.572;2022-12-01T02:58:11;49.40;;;25.30;;
15516;SDS011;7860;52.030;5.572;2022-12-01T02:59:11;52.45;;;25.58;;
15516;SDS011;7860;52.030;5.572;2022-12-01T03:00:11;50.03;;;26.13;;
15516;SDS011;7860;52.030;5.572;2022-12-01T03:01:15;49.87;;;25.70;;
15516;SDS011;7860;52.030;5.572;2022-12-01T03:02:13;50.24;;;26.06;;
15516;SDS011;7860;52.030;5.572;2022-12-01T03:03:19;49.41;;;26.11;;
15516;SDS011;7860;52.030;5.572;2022-12-01T03:04:18;49.20;;;25.38;;
15516;SDS011;7860;52.030;5.572;2022-12-01T03:05:14;51.95;;;26.18;;
15516;SDS011;7860;52.030;5.572;2022-12-01T03:06:15;52.23;;;26.12;;
15516;SDS011;7860;52.030;5.572;2022-12-01T03:07:20;49.57;;;25.88;;
15516;SDS011;7860;52.030;5.572;2022-12-01T03:08:17;51.22;;;26.82;;
15516;SDS011;7860;52.030;5.572;2022-12-01T03:09:16;50.98;;;26.68;;
15516;SDS011;7860;52.030;5.572;2022-12-01T03:10:16;53.48;;;25.73;;
15516;SDS011;7860;52.030;5.572;2022-12-01T03:11:17;52.62;;;26.27;;
15516;SDS011;7860;52.030;5.572;2022-12-01T03:12:19;53.21;;;27.13;;
15516;SDS011;7860;52.030;5.572;2022-12-01T03:13:18;51.78;;;26.20;;
15516;SDS011;7860;52.030;5.572;2022-12-01T03:14:21;53.34;;;26.38;;
15516;SDS011;7860;52.030;5.572;2022-12-01T03:15:21;52.75;;;26.80;;
15516;SDS011;7860;52.030;5.572;2022-12-01T03:16:20;53.62;;;25.90;;
15516;SDS011;7860;52.030;5.572;2022-12-01T03:17:21;53.88;;;26.30;;
15516;SDS011;7860;52.030;5.572;2022-12-01T03:18:22;54.73;;;26.48;;
15516;SDS011;7860;52.030;5.572;2022-12-01T03:19:22;53.09;;;26.58;;
15516;SDS011;7860;52.030;5.572;2022-12-01T03:20:23;51.19;;;25.88;;
15516;SDS011;7860;52.030;5.572;2022-12-01T03:21:23;51.23;;;26.16;;
15516;SDS011;7860;52.030;5.572;2022-12-01T03:22:24;53.15;;;26.89;;
15516;SDS011;7860;52.030;5.572;2022-12-01T03:23:23;53.72;;;26.70;;
15516;SDS011;7860;52.030;5.572;2022-12-01T03:24:24;53.78;;;26.77;;
15516;SDS011;7860;52.030;5.572;2022-12-01T03:25:23;51.89;;;26.68;;
15516;SDS011;7860;52.030;5.572;2022-12-01T03:26:24;48.48;;;25.56;;
15516;SDS011;7860;52.030;5.572;2022-12-01T03:27:26;51.96;;;26.59;;
15516;SDS011;7860;52.030;5.572;2022-12-01T03:28:27;53.79;;;26.23;;
15516;SDS011;7860;52.030;5.572;2022-12-01T03:29:28;53.02;;;26.45;;
15516;SDS011;7860;52.030;5.572;2022-12-01T03:30:27;54.18;;;26.55;;
15516;SDS011;7860;52.030;5.572;2022-12-01T03:31:29;54.12;;;26.61;;
15516;SDS011;7860;52.030;5.572;2022-12-01T03:32:28;53.23;;;26.98;;
15516;SDS011;7860;52.030;5.572;2022-12-01T03:33:29;53.85;;;27.46;;
15516;SDS011;7860;52.030;5.572;2022-12-01T03:34:30;52.43;;;26.42;;
15516;SDS011;7860;52.030;5.572;2022-12-01T03:35:29;54.32;;;26.69;;
15516;SDS011;7860;52.030;5.572;2022-12-01T03:36:31;51.07;;;26.38;;
15516;SDS011;7860;52.030;5.572;2022-12-01T03:37:30;57.86;;;27.44;;
15516;SDS011;7860;52.030;5.572;2022-12-01T03:38:31;53.81;;;26.75;;
15516;SDS011;7860;52.030;5.572;2022-12-01T03:39:31;53.38;;;26.08;;
15516;SDS011;7860;52.030;5.572;2022-12-01T03:40:31;54.06;;;26.10;;
15516;SDS011;7860;52.030;5.572;2022-12-01T03:41:33;52.18;;;26.77;;
15516;SDS011;7860;52.030;5.572;2022-12-01T03:42:32;51.35;;;25.92;;
15516;SDS011;7860;52.030;5.572;2022-12-01T03:43:33;53.66;;;26.50;;
15516;SDS011;7860;52.030;5.572;2022-12-01T03:44:33;51.23;;;26.57;;
15516;SDS011;7860;52.030;5.572;2022-12-01T03:45:35;53.24;;;26.52;;
15516;SDS011;7860;52.030;5.572;2022-12-01T03:46:36;50.96;;;26.05;;
15516;SDS011;7860;52.030;5.572;2022-12-01T03:47:34;54.90;;;26.75;;
15516;SDS011;7860;52.030;5.572;2022-12-01T03:48:35;56.64;;;27.08;;
15516;SDS011;7860;52.030;5.572;2022-12-01T03:49:35;52.93;;;26.20;;
15516;SDS011;7860;52.030;5.572;2022-12-01T03:50:38;54.07;;;26.42;;
15516;SDS011;7860;52.030;5.572;2022-12-01T03:51:38;52.76;;;26.88;;
15516;SDS011;7860;52.030;5.572;2022-12-01T03:52:38;54.82;;;26.59;;
15516;SDS011;7860;52.030;5.572;2022-12-01T03:53:39;53.98;;;26.96;;
15516;SDS011;7860;52.030;5.572;2022-12-01T03:54:41;50.85;;;26.85;;
15516;SDS011;7860;52.030;5.572;2022-12-01T03:55:39;51.97;;;26.25;;
15516;SDS011;7860;52.030;5.572;2022-12-01T03:56:42;52.99;;;26.10;;
15516;SDS011;7860;52.030;5.572;2022-12-01T03:57:41;55.88;;;26.64;;
15516;SDS011;7860;52.030;5.572;2022-12-01T03:58:41;55.74;;;26.64;;
15516;SDS011;7860;52.030;5.572;2022-12-01T03:59:41;53.11;;;27.19;;
15516;SDS011;7860;52.030;5.572;2022-12-01T04:00:42;52.29;;;26.26;;
15516;SDS011;7860;52.030;5.572;2022-12-01T04:01:43;54.87;;;27.04;;
15516;SDS011;7860;52.030;5.572;2022-12-01T04:02:44;52.78;;;26.85;;
15516;SDS011;7860;52.030;5.572;2022-12-01T04:03:44;52.78;;;26.14;;
15516;SDS011;7860;52.030;5.572;2022-12-01T04:04:44;51.21;;;26.93;;
15516;SDS011;7860;52.030;5.572;2022-12-01T04:05:45;54.68;;;28.37;;
15516;SDS011;7860;52.030;5.572;2022-12-01T04:06:46;52.58;;;26.76;;
15516;SDS011;7860;52.030;5.572;2022-12-01T04:07:46;52.21;;;26.75;;
15516;SDS011;7860;52.030;5.572;2022-12-01T04:08:46;51.15;;;26.26;;
15516;SDS011;7860;52.030;5.572;2022-12-01T04:09:47;53.39;;;27.53;;
15516;SDS011;7860;52.030;5.572;2022-12-01T04:10:47;54.92;;;25.82;;
15516;SDS011;7860;52.030;5.572;2022-12-01T04:11:48;55.90;;;27.65;;
15516;SDS011;7860;52.030;5.572;2022-12-01T04:12:49;54.62;;;26.76;;
15516;SDS011;7860;52.030;5.572;2022-12-01T04:13:49;52.98;;;26.49;;
15516;SDS011;7860;52.030;5.572;2022-12-01T04:14:50;52.33;;;26.12;;
15516;SDS011;7860;52.030;5.572;2022-12-01T04:15:51;52.57;;;26.24;;
15516;SDS011;7860;52.030;5.572;2022-12-01T04:16:51;53.53;;;27.38;;
15516;SDS011;7860;52.030;5.572;2022-12-01T04:17:51;48.21;;;26.11;;
15516;SDS011;7860;52.030;5.572;2022-12-01T04:18:52;52.33;;;27.22;;
15516;SDS011;7860;52.030;5.572;2022-12-01T04:19:52;55.81;;;27.91;;
15516;SDS011;7860;52.030;5.572;2022-12-01T04:20:53;52.41;;;26.74;;
15516;SDS011;7860;52.030;5.572;2022-12-01T04:21:53;49.78;;;26.69;;
15516;SDS011;7860;52.030;5.572;2022-12-01T04:22:54;50.54;;;25.93;;
15516;SDS011;7860;52.030;5.572;2022-12-01T04:23:54;53.06;;;26.29;;
15516;SDS011;7860;52.030;5.572;2022-12-01T04:24:55;50.87;;;25.69;;
15516;SDS011;7860;52.030;5.572;2022-12-01T04:25:57;51.95;;;26.03;;
15516;SDS011;7860;52.030;5.572;2022-12-01T04:26:56;50.66;;;25.91;;
15516;SDS011;7860;52.030;5.572;2022-12-01T04:27:57;51.64;;;26.40;;
15516;SDS011;7860;52.030;5.572;2022-12-01T04:28:57;50.94;;;26.72;;
15516;SDS011;7860;52.030;5.572;2022-12-01T04:29:58;51.15;;;26.13;;
15516;SDS011;7860;52.030;5.572;2022-12-01T04:30:58;50.87;;;27.04;;
15516;SDS011;7860;52.030;5.572;2022-12-01T04:31:59;50.84;;;26.61;;
15516;SDS011;7860;52.030;5.572;2022-12-01T04:33:00;50.66;;;25.95;;
15516;SDS011;7860;52.030;5.572;2022-12-01T04:34:00;51.14;;;27.70;;
15516;SDS011;7860;52.030;5.572;2022-12-01T04:35:01;48.60;;;27.16;;
15516;SDS011;7860;52.030;5.572;2022-12-01T04:36:02;51.54;;;27.30;;
15516;SDS011;7860;52.030;5.572;2022-12-01T04:37:05;51.33;;;27.61;;
15516;SDS011;7860;52.030;5.572;2022-12-01T04:38:03;49.45;;;27.11;;
15516;SDS011;7860;52.030;5.572;2022-12-01T04:39:04;49.46;;;26.54;;
15516;SDS011;7860;52.030;5.572;2022-12-01T04:40:06;51.37;;;27.80;;
15516;SDS011;7860;52.030;5.572;2022-12-01T04:41:07;51.65;;;27.49;;
15516;SDS011;7860;52.030;5.572;2022-12-01T04:42:06;49.24;;;27.38;;
15516;SDS011;7860;52.030;5.572;2022-12-01T04:43:07;49.83;;;27.67;;
15516;SDS011;7860;52.030;5.572;2022-12-01T04:44:08;51.22;;;28.78;;
15516;SDS011;7860;52.030;5.572;2022-12-01T04:45:08;51.34;;;27.90;;
15516;SDS011;7860;52.030;5.572;2022-12-01T04:46:09;49.71;;;27.71;;
15516;SDS011;7860;52.030;5.572;2022-12-01T04:47:10;52.68;;;27.81;;
15516;SDS011;7860;52.030;5.572;2022-12-01T04:48:11;49.34;;;28.55;;
15516;SDS011;7860;52.030;5.572;2022-12-01T04:49:11;52.37;;;27.56;;
15516;SDS011;7860;52.030;5.572;2022-12-01T04:50:12;50.46;;;27.94;;
15516;SDS011;7860;52.030;5.572;2022-12-01T04:51:12;49.65;;;28.45;;
15516;SDS011;7860;52.030;5.572;2022-12-01T04:52:14;49.50;;;27.20;;
15516;SDS011;7860;52.030;5.572;2022-12-01T04:53:14;51.38;;;28.19;;
15516;SDS011;7860;52.030;5.572;2022-12-01T04:54:15;49.82;;;27.88;;
15516;SDS011;7860;52.030;5.572;2022-12-01T04:55:15;50.35;;;27.50;;
15516;SDS011;7860;52.030;5.572;2022-12-01T04:56:16;49.09;;;27.20;;
15516;SDS011;7860;52.030;5.572;2022-12-01T04:57:17;48.00;;;27.98;;
15516;SDS011;7860;52.030;5.572;2022-12-01T04:58:17;47.76;;;27.25;;
15516;SDS011;7860;52.030;5.572;2022-12-01T04:59:18;47.96;;;27.35;;
15516;SDS011;7860;52.030;5.572;2022-12-01T05:00:19;48.49;;;27.59;;
15516;SDS011;7860;52.030;5.572;2022-12-01T05:01:20;47.50;;;27.26;;
15516;SDS011;7860;52.030;5.572;2022-12-01T05:02:20;48.25;;;27.95;;
15516;SDS011;7860;52.030;5.572;2022-12-01T05:03:21;47.12;;;27.78;;
15516;SDS011;7860;52.030;5.572;2022-12-01T05:04:21;49.30;;;28.66;;
15516;SDS011;7860;52.030;5.572;2022-12-01T05:05:22;48.15;;;28.13;;
15516;SDS011;7860;52.030;5.572;2022-12-01T05:06:22;49.43;;;28.50;;
15516;SDS011;7860;52.030;5.572;2022-12-01T05:07:23;50.06;;;28.94;;
15516;SDS011;7860;52.030;5.572;2022-12-01T05:08:23;48.09;;;27.74;;
15516;SDS011;7860;52.030;5.572;2022-12-01T05:09:24;49.58;;;27.76;;
15516;SDS011;7860;52.030;5.572;2022-12-01T05:10:24;48.72;;;28.14;;
15516;SDS011;7860;52.030;5.572;2022-12-01T05:11:25;47.95;;;27.71;;
15516;SDS011;7860;52.030;5.572;2022-12-01T05:12:25;47.70;;;27.57;;
15516;SDS011;7860;52.030;5.572;2022-12-01T05:13:26;49.00;;;27.80;;
15516;SDS011;7860;52.030;5.572;2022-12-01T05:14:26;48.35;;;27.64;;
15516;SDS011;7860;52.030;5.572;2022-12-01T05:15:27;51.25;;;27.03;;
15516;SDS011;7860;52.030;5.572;2022-12-01T05:16:28;51.43;;;29.38;;
15516;SDS011;7860;52.030;5.572;2022-12-01T05:17:29;50.06;;;28.90;;
15516;SDS011;7860;52.030;5.572;2022-12-01T05:18:28;50.14;;;27.95;;
15516;SDS011;7860;52.030;5.572;2022-12-01T05:19:28;49.14;;;28.85;;
15516;SDS011;7860;52.030;5.572;2022-12-01T05:20:29;48.99;;;28.15;;
15516;SDS011;7860;52.030;5.572;2022-12-01T05:21:30;48.87;;;28.43;;
15516;SDS011;7860;52.030;5.572;2022-12-01T05:22:30;49.83;;;28.85;;
15516;SDS011;7860;52.030;5.572;2022-12-01T05:23:31;51.02;;;28.89;;
15516;SDS011;7860;52.030;5.572;2022-12-01T05:24:32;49.48;;;28.63;;
15516;SDS011;7860;52.030;5.572;2022-12-01T05:25:32;50.22;;;28.36;;
15516;SDS011;7860;52.030;5.572;2022-12-01T05:26:32;47.68;;;28.30;;
15516;SDS011;7860;52.030;5.572;2022-12-01T05:27:33;47.73;;;27.88;;
15516;SDS011;7860;52.030;5.572;2022-12-01T05:28:33;50.75;;;28.92;;
15516;SDS011;7860;52.030;5.572;2022-12-01T05:29:34;48.81;;;27.77;;
15516;SDS011;7860;52.030;5.572;2022-12-01T05:30:34;51.27;;;28.97;;
15516;SDS011;7860;52.030;5.572;2022-12-01T05:31:35;47.76;;;28.09;;
15516;SDS011;7860;52.030;5.572;2022-12-01T05:32:35;47.69;;;28.10;;
15516;SDS011;7860;52.030;5.572;2022-12-01T05:33:36;47.50;;;28.19;;
15516;SDS011;7860;52.030;5.572;2022-12-01T05:34:36;50.74;;;28.07;;
15516;SDS011;7860;52.030;5.572;2022-12-01T05:35:37;50.02;;;28.77;;
15516;SDS011;7860;52.030;5.572;2022-12-01T05:36:38;47.47;;;27.96;;
15516;SDS011;7860;52.030;5.572;2022-12-01T05:37:39;48.63;;;28.92;;
15516;SDS011;7860;52.030;5.572;2022-12-01T05:38:39;49.71;;;28.76;;
15516;SDS011;7860;52.030;5.572;2022-12-01T05:39:40;48.96;;;27.79;;
15516;SDS011;7860;52.030;5.572;2022-12-01T05:40:41;47.34;;;27.60;;
15516;SDS011;7860;52.030;5.572;2022-12-01T05:41:41;48.62;;;28.11;;
15516;SDS011;7860;52.030;5.572;2022-12-01T05:42:42;50.11;;;28.58;;
15516;SDS011;7860;52.030;5.572;2022-12-01T05:43:43;48.72;;;27.78;;
15516;SDS011;7860;52.030;5.572;2022-12-01T05:44:43;50.41;;;29.09;;
15516;SDS011;7860;52.030;5.572;2022-12-01T05:45:44;48.86;;;27.63;;
15516;SDS011;7860;52.030;5.572;2022-12-01T05:46:45;49.89;;;27.04;;
15516;SDS011;7860;52.030;5.572;2022-12-01T05:47:46;50.08;;;28.60;;
15516;SDS011;7860;52.030;5.572;2022-12-01T05:48:46;48.93;;;27.94;;
15516;SDS011;7860;52.030;5.572;2022-12-01T05:49:47;51.17;;;29.38;;
15516;SDS011;7860;52.030;5.572;2022-12-01T05:50:47;50.74;;;28.40;;
15516;SDS011;7860;52.030;5.572;2022-12-01T05:51:47;50.38;;;28.36;;
15516;SDS011;7860;52.030;5.572;2022-12-01T05:52:47;47.71;;;28.14;;
15516;SDS011;7860;52.030;5.572;2022-12-01T05:53:48;51.50;;;28.77;;
15516;SDS011;7860;52.030;5.572;2022-12-01T05:54:49;52.90;;;28.35;;
15516;SDS011;7860;52.030;5.572;2022-12-01T05:55:51;52.84;;;28.99;;
15516;SDS011;7860;52.030;5.572;2022-12-01T05:56:50;53.73;;;27.75;;
15516;SDS011;7860;52.030;5.572;2022-12-01T05:57:51;50.01;;;27.33;;
15516;SDS011;7860;52.030;5.572;2022-12-01T05:58:52;50.92;;;26.74;;
15516;SDS011;7860;52.030;5.572;2022-12-01T05:59:52;51.32;;;26.83;;